Time;durP1;ratioP1;P1;durP2;ratioP2;P2;SDS_P1;SDS_P2;PMS_P1;PMS_P2;Temp;Humidity;BMP_temperature;BMP_pressure;BME280_temperature;BME280_humidity;BME280_pressure;Samples;Min_cycle;Max_cycle;Signal;HPM_P1;HPM_P2
2022/09/01 09:52:09;;;;;;;2.40;1.60;;;;;;;37.25;35.77;99215.46;105885;1277;108542;-65
2022/09/01 09:55:04;;;;;;;3.10;1.70;;;;;;;36.90;35.17;99213.50;105971;1278;99252;-66
2022/09/01 09:57:42;;;;;;;5.50;2.00;;;;;;;36.04;34.67;99214.73;105989;1277;99237;-67
2022/09/01 10:00:28;;;;;;;2.90;1.40;;;;;;;35.43;34.58;99216.48;105885;1277;113403;-67
2022/09/01 10:03:06;;;;;;;7.00;1.70;;;;;;;34.72;34.11;99214.90;105981;1277;99745;-65
2022/09/01 10:05:50;;;;;;;6.90;1.80;;;;;;;34.32;33.95;99208.63;106051;1277;108674;-65
2022/09/01 10:08:35;;;;;;;2.50;1.70;;;;;;;33.92;33.75;99212.66;106023;1277;99180;-68
2022/09/01 10:11:10;;;;;;;4.20;1.90;;;;;;;33.28;32.94;99211.94;106001;1277;99230;-66
2022/09/01 10:13:38;;;;;;;5.70;1.70;;;;;;;32.69;32.96;99217.79;105961;1277;113390;-66
2022/09/01 10:16:18;;;;;;;3.80;1.90;;;;;;;32.38;32.84;99213.80;105903;1277;99704;-66
2022/09/01 10:18:51;;;;;;;3.80;2.10;;;;;;;31.89;32.47;99212.08;106286;1277;107569;-64
2022/09/01 10:21:29;;;;;;;2.90;1.40;;;;;;;31.37;32.40;99211.11;105953;1276;100021;-66
2022/09/01 10:24:12;;;;;;;4.70;2.00;;;;;;;30.70;32.23;99214.73;107315;1277;96987;-64
2022/09/01 10:26:55;;;;;;;2.20;1.40;;;;;;;29.88;31.75;99218.46;105776;1277;113201;-66
2022/09/01 10:29:34;;;;;;;3.70;2.00;;;;;;;29.24;31.67;99222.33;105880;1278;99249;-66
2022/09/01 10:32:30;;;;;;;2.50;1.80;;;;;;;28.69;31.64;99218.24;106763;1277;107760;-65
2022/09/01 10:35:32;;;;;;;4.80;2.30;;;;;;;28.18;31.23;99219.60;105827;1277;97785;-66
2022/09/01 10:38:13;;;;;;;3.20;1.80;;;;;;;27.70;31.31;99217.92;105729;1279;99102;-66
2022/09/01 10:40:49;;;;;;;6.80;1.90;;;;;;;27.35;31.43;99211.01;105850;1277;112909;-64
2022/09/01 10:43:46;;;;;;;4.20;1.50;;;;;;;27.15;31.19;99209.29;105850;1277;100066;-66
2022/09/01 10:46:20;;;;;;;3.20;1.60;;;;;;;26.92;31.39;99205.10;107722;1277;108311;-66
2022/09/01 10:48:55;;;;;;;3.20;1.40;;;;;;;26.81;31.54;99203.02;107759;1277;97254;-65
2022/09/01 10:51:30;;;;;;;8.50;1.80;;;;;;;26.77;31.19;99201.20;106530;1277;97669;-65
2022/09/01 10:54:05;;;;;;;2.90;1.70;;;;;;;26.62;31.11;99200.96;107606;1277;113393;-66
2022/09/01 10:56:52;;;;;;;5.50;1.80;;;;;;;26.42;31.23;99197.60;106817;1277;99713;-64
2022/09/01 10:59:28;;;;;;;2.70;1.20;;;;;;;26.22;31.04;99193.05;105974;1277;106715;-66
2022/09/01 11:02:17;;;;;;;5.80;1.90;;;;;;;25.91;31.00;99195.75;105861;1277;99320;-65
2022/09/01 11:04:58;;;;;;;2.90;1.50;;;;;;;25.56;31.08;99194.13;105915;1279;99297;-65
2022/09/01 11:07:37;;;;;;;6.90;2.50;;;;;;;25.44;31.07;99187.64;105959;1277;113360;-65
2022/09/01 11:10:51;;;;;;;5.20;2.00;;;;;;;25.36;31.19;99186.30;105955;1277;99228;-66
2022/09/01 11:13:37;;;;;;;3.10;1.50;;;;;;;25.24;30.99;99182.75;105779;1277;108385;-67
2022/09/01 11:16:27;;;;;;;3.30;1.20;;;;;;;25.08;31.18;99187.80;105931;1276;99368;-65
2022/09/01 11:19:44;;;;;;;7.20;2.30;;;;;;;25.03;31.18;99189.73;105966;1277;99199;-66
2022/09/01 11:22:12;;;;;;;3.70;1.60;;;;;;;24.95;31.22;99186.08;106827;1276;112767;-65
2022/09/01 11:24:51;;;;;;;6.90;1.40;;;;;;;24.93;31.21;99182.17;105935;1278;97638;-66
2022/09/01 11:27:47;;;;;;;3.60;1.40;;;;;;;24.92;31.32;99177.48;105965;1277;107645;-65
2022/09/01 11:30:29;;;;;;;4.30;1.70;;;;;;;25.02;31.39;99183.56;105999;1277;97745;-66
2022/09/01 11:33:10;;;;;;;3.50;1.10;;;;;;;25.03;31.29;99186.11;105953;1277;99342;-65
2022/09/01 11:35:44;;;;;;;3.20;1.20;;;;;;;24.96;31.23;99188.89;105932;1277;113452;-62
2022/09/01 11:38:19;;;;;;;2.50;1.30;;;;;;;24.85;31.27;99192.22;105900;1277;99289;-61
2022/09/01 11:40:56;;;;;;;3.60;1.40;;;;;;;24.74;31.15;99193.42;105963;1277;108779;-62
2022/09/01 11:43:29;;;;;;;2.20;1.40;;;;;;;24.61;31.34;99194.17;105999;1277;99275;-67
2022/09/01 11:46:06;;;;;;;1.60;1.00;;;;;;;24.52;31.47;99192.98;105935;1279;99130;-65
2022/09/01 11:48:36;;;;;;;4.90;1.40;;;;;;;24.48;31.47;99191.07;105804;1279;113404;-64
2022/09/01 11:51:05;;;;;;;1.70;1.10;;;;;;;24.45;31.40;99193.33;106152;1277;99250;-66
2022/09/01 11:53:33;;;;;;;11.80;1.80;;;;;;;24.41;31.55;99193.45;105830;1277;108305;-67
2022/09/01 11:56:12;;;;;;;4.70;1.60;;;;;;;24.35;31.53;99188.23;105939;1280;99344;-66
2022/09/01 11:58:41;;;;;;;3.30;1.90;;;;;;;24.34;31.60;99189.15;106772;1278;99235;-64
2022/09/01 12:01:21;;;;;;;5.20;1.50;;;;;;;24.26;31.60;99188.67;105898;1277;113475;-67
2022/09/01 12:03:54;;;;;;;3.90;1.80;;;;;;;24.14;31.59;99185.49;105789;1278;99248;-65
2022/09/01 12:06:31;;;;;;;4.40;1.70;;;;;;;24.08;31.61;99190.83;105954;1277;108495;-64
2022/09/01 12:09:04;;;;;;;4.20;1.90;;;;;;;23.95;31.58;99190.38;105923;1278;99205;-64
2022/09/01 12:11:35;;;;;;;21.40;2.70;;;;;;;23.85;31.48;99189.69;105698;1277;99191;-65
2022/09/01 12:14:09;;;;;;;9.60;1.80;;;;;;;23.82;31.80;99188.05;105911;1277;113531;-67
2022/09/01 12:16:41;;;;;;;6.10;1.60;;;;;;;23.75;31.63;99188.32;105874;1277;100135;-66
2022/09/01 12:19:23;;;;;;;8.20;1.80;;;;;;;23.56;31.64;99188.39;105717;1279;108335;-64
2022/09/01 12:22:17;;;;;;;6.40;2.20;;;;;;;23.37;31.80;99182.93;106068;1277;99338;-63
2022/09/01 12:24:53;;;;;;;4.60;1.60;;;;;;;23.18;31.79;99187.66;105872;1277;99271;-65
2022/09/01 12:27:22;;;;;;;5.30;1.40;;;;;;;23.06;31.54;99183.15;105965;1277;112382;-65
2022/09/01 12:29:55;;;;;;;5.10;1.50;;;;;;;22.92;31.89;99183.55;105914;1279;99288;-65
2022/09/01 12:32:32;;;;;;;3.50;1.30;;;;;;;22.87;31.88;99181.06;106007;1277;106267;-66
2022/09/01 12:35:26;;;;;;;7.70;1.80;;;;;;;22.82;31.73;99178.36;105848;1277;99405;-65
2022/09/01 12:38:25;;;;;;;4.30;1.60;;;;;;;22.69;31.93;99170.17;105933;1277;99223;-64
2022/09/01 12:40:58;;;;;;;6.60;1.10;;;;;;;22.72;32.12;99172.44;106067;1277;112872;-63
2022/09/01 12:43:31;;;;;;;;;;;;;;;22.78;31.91;99172.60;105905;1279;99273;-61
2022/09/01 12:46:08;;;;;;;6.00;1.40;;;;;;;22.74;31.99;99166.84;105945;1277;108227;-64
2022/09/01 12:48:43;;;;;;;2.30;1.00;;;;;;;22.83;31.90;99168.24;105999;1277;97814;-64
2022/09/01 12:51:17;;;;;;;8.20;1.60;;;;;;;22.95;31.86;99164.64;106034;1277;99230;-65
2022/09/01 12:53:56;;;;;;;9.80;1.80;;;;;;;23.04;32.23;99159.73;105906;1276;113395;-66
2022/09/01 12:56:37;;;;;;;2.40;1.00;;;;;;;23.11;32.11;99158.60;105957;1276;99335;-65
2022/09/01 12:59:22;;;;;;;4.20;1.00;;;;;;;23.12;32.02;99155.15;106005;1277;107618;-65
2022/09/01 13:02:35;;;;;;;2.40;1.20;;;;;;;23.06;31.83;99157.87;105804;1277;99225;-65
2022/09/01 13:05:32;;;;;;;0.90;0.70;;;;;;;22.98;31.91;99153.99;105977;1276;99241;-65
2022/09/01 13:08:15;;;;;;;4.90;1.60;;;;;;;22.99;32.10;99151.42;106024;1276;113453;-65
2022/09/01 13:10:50;;;;;;;1.10;0.90;;;;;;;23.16;32.10;99147.05;105943;1276;97108;-64
2022/09/01 13:13:23;;;;;;;6.00;1.00;;;;;;;23.24;32.13;99146.55;105958;1277;107360;-64
2022/09/01 13:15:55;;;;;;;3.60;1.00;;;;;;;23.31;32.18;99151.21;105897;1276;99255;-64
2022/09/01 13:18:27;;;;;;;3.20;1.20;;;;;;;23.27;32.07;99152.96;105776;1277;99312;-65
2022/09/01 13:20:57;;;;;;;4.70;1.00;;;;;;;23.27;32.09;99153.70;105952;1276;114291;-64
2022/09/01 13:23:25;;;;;;;1.80;1.00;;;;;;;23.29;32.13;99155.70;105981;1276;99272;-66
2022/09/01 13:25:54;;;;;;;15.10;1.80;;;;;;;23.32;32.07;99155.19;105875;1277;108510;-66
2022/09/01 13:28:23;;;;;;;5.20;1.00;;;;;;;23.42;32.27;99154.53;105874;1276;99293;-64
2022/09/01 13:30:58;;;;;;;4.50;0.90;;;;;;;23.49;32.23;99152.86;105945;1276;96679;-65
2022/09/01 13:33:46;;;;;;;3.30;1.60;;;;;;;23.55;32.06;99147.99;105904;1279;113505;-64
2022/09/01 13:36:35;;;;;;;2.70;1.10;;;;;;;23.56;32.24;99153.47;105845;1277;99237;-66
2022/09/01 13:39:16;;;;;;;4.60;1.10;;;;;;;23.60;32.13;99155.30;105841;1277;108348;-65
2022/09/01 13:41:48;;;;;;;5.50;1.40;;;;;;;23.62;32.34;99154.86;105954;1276;99326;-65
2022/09/01 13:44:19;;;;;;;4.10;1.30;;;;;;;23.67;32.25;99149.96;105865;1277;99235;-65
2022/09/01 13:46:49;;;;;;;4.40;1.30;;;;;;;23.73;32.25;99153.53;105854;1276;111424;-63
2022/09/01 13:49:37;;;;;;;2.30;0.80;;;;;;;23.75;32.10;99154.73;106084;1276;99282;-65
2022/09/01 13:52:26;;;;;;;3.90;1.10;;;;;;;23.75;32.25;99151.42;105913;1276;108474;-68
2022/09/01 13:54:54;;;;;;;2.60;0.80;;;;;;;23.72;32.06;99156.55;106668;1276;100330;-66
2022/09/01 13:57:22;;;;;;;3.90;1.10;;;;;;;23.68;32.06;99154.31;106544;1276;99227;-66
2022/09/01 13:59:51;;;;;;;4.40;0.90;;;;;;;23.65;32.01;99160.02;105836;1276;113499;-65
2022/09/01 14:02:20;;;;;;;2.30;0.70;;;;;;;23.64;32.01;99157.31;105721;1276;99217;-65
2022/09/01 14:04:48;;;;;;;2.20;1.20;;;;;;;23.67;31.99;99156.40;105547;1276;108606;-64
2022/09/01 14:07:17;;;;;;;2.30;1.00;;;;;;;23.69;32.13;99156.79;105593;1276;99220;-64
2022/09/01 14:09:45;;;;;;;3.20;1.00;;;;;;;23.70;32.04;99160.23;105577;1276;99419;-65
2022/09/01 14:12:14;;;;;;;3.60;1.00;;;;;;;23.68;31.90;99156.30;107559;1276;113347;-65
2022/09/01 14:14:42;;;;;;;3.30;1.00;;;;;;;23.64;31.95;99154.05;106465;1276;99256;-65
2022/09/01 14:17:33;;;;;;;1.70;0.90;;;;;;;23.63;31.89;99162.89;105829;1277;108521;-66
2022/09/01 14:20:11;;;;;;;6.10;1.20;;;;;;;23.58;31.89;99164.30;107677;1276;97360;-65
2022/09/01 14:22:39;;;;;;;3.00;1.30;;;;;;;23.54;31.79;99165.84;107679;1276;97345;-64
2022/09/01 14:25:09;;;;;;;6.50;1.40;;;;;;;23.53;31.75;99162.70;107363;1277;113114;-65
2022/09/01 14:27:38;;;;;;;6.70;1.00;;;;;;;23.50;31.91;99161.89;107665;1276;97408;-65
2022/09/01 14:30:08;;;;;;;4.80;1.10;;;;;;;23.49;31.66;99155.98;107717;1275;107868;-68
2022/09/01 14:32:40;;;;;;;3.90;1.20;;;;;;;23.45;31.69;99158.25;106946;1277;97782;-67
2022/09/01 14:35:08;;;;;;;6.10;1.40;;;;;;;23.41;31.55;99154.66;105957;1276;96635;-66
2022/09/01 14:37:41;;;;;;;6.20;3.20;;;;;;;23.42;31.97;99156.89;105895;1277;113356;-66
2022/09/01 14:40:10;;;;;;;2.80;1.30;;;;;;;23.42;31.64;99157.06;105888;1276;98953;-66
2022/09/01 14:42:47;;;;;;;3.80;1.10;;;;;;;23.39;31.50;99155.23;106010;1276;107826;-67
2022/09/01 14:45:27;;;;;;;3.90;1.30;;;;;;;23.29;31.39;99154.24;106024;1276;96621;-67
2022/09/01 14:47:59;;;;;;;5.20;1.10;;;;;;;23.11;31.52;99154.64;105927;1276;99322;-69
2022/09/01 14:50:34;;;;;;;9.60;1.70;;;;;;;22.97;31.50;99159.11;105889;1276;112650;-68
2022/09/01 14:53:02;;;;;;;5.00;2.00;;;;;;;22.85;31.62;99162.92;105935;1276;99327;-66
2022/09/01 14:55:31;;;;;;;6.40;1.70;;;;;;;22.72;31.34;99163.19;105966;1276;108485;-67
2022/09/01 14:58:05;;;;;;;3.80;0.90;;;;;;;22.67;31.49;99160.85;105906;1276;99398;-65
2022/09/01 15:00:34;;;;;;;4.90;1.40;;;;;;;22.59;31.50;99162.14;105969;1276;97932;-65
2022/09/01 15:03:04;;;;;;;5.00;1.10;;;;;;;22.55;31.49;99160.21;105886;1277;112399;-65
2022/09/01 15:05:37;;;;;;;2.50;1.40;;;;;;;22.51;31.57;99159.81;105903;1276;99303;-65
2022/09/01 15:08:08;;;;;;;3.20;1.00;;;;;;;22.44;31.30;99163.54;105724;1276;108452;-65
2022/09/01 15:10:43;;;;;;;4.00;1.20;;;;;;;22.35;31.54;99162.45;105630;1277;99381;-64
2022/09/01 15:13:12;;;;;;;4.00;0.90;;;;;;;22.31;31.47;99164.03;107679;1276;97086;-63
2022/09/01 15:15:40;;;;;;;10.80;1.40;;;;;;;22.27;31.37;99167.94;107662;1276;111652;-64
2022/09/01 15:18:08;;;;;;;5.90;1.60;;;;;;;22.24;31.34;99167.48;107706;1276;97629;-64
2022/09/01 15:20:43;;;;;;;3.40;1.10;;;;;;;22.21;31.33;99168.64;106015;1276;108491;-64
2022/09/01 15:23:21;;;;;;;8.70;1.10;;;;;;;22.19;31.18;99162.17;107788;1275;97059;-64
2022/09/01 15:25:52;;;;;;;3.40;1.30;;;;;;;22.20;31.55;99168.89;107560;1277;97399;-65
2022/09/01 15:28:21;;;;;;;5.40;1.00;;;;;;;22.22;31.58;99168.56;107752;1275;112833;-64
2022/09/01 15:30:51;;;;;;;3.60;1.20;;;;;;;22.22;31.40;99166.35;107783;1275;97369;-64
2022/09/01 15:33:21;;;;;;;9.40;1.10;;;;;;;22.22;31.35;99170.11;107744;1275;107753;-64
2022/09/01 15:35:48;;;;;;;1.60;1.00;;;;;;;22.21;31.45;99167.85;107282;1276;99240;-63
2022/09/01 15:38:17;;;;;;;6.30;1.50;;;;;;;22.20;31.23;99173.27;105985;1276;99303;-62
2022/09/01 15:40:48;;;;;;;2.00;0.90;;;;;;;22.19;31.23;99174.73;105852;1277;114156;-64
2022/09/01 15:43:29;;;;;;;4.20;1.30;;;;;;;22.12;31.35;99176.39;105993;1276;96766;-65
2022/09/01 15:46:04;;;;;;;6.10;1.60;;;;;;;22.05;31.50;99176.86;105998;1276;108404;-66
2022/09/01 15:48:33;;;;;;;10.90;1.70;;;;;;;22.00;31.48;99173.04;106021;1276;96574;-69
2022/09/01 15:51:19;;;;;;;2.70;1.50;;;;;;;21.97;31.40;99175.08;105952;1277;99268;-69
2022/09/01 15:53:52;;;;;;;5.40;1.30;;;;;;;21.90;31.39;99177.04;103840;1276;2880230;-68
2022/09/01 15:56:21;;;;;;;4.20;1.50;;;;;;;21.84;31.76;99173.39;105911;1276;99257;-68
2022/09/01 15:58:49;;;;;;;5.70;1.50;;;;;;;21.76;31.69;99181.75;105874;1277;107781;-69
2022/09/01 16:01:35;;;;;;;3.40;1.60;;;;;;;21.68;31.63;99181.02;105610;1277;99311;-65
2022/09/01 16:04:06;;;;;;;5.40;1.70;;;;;;;21.63;31.68;99182.31;105973;1276;96731;-67
2022/09/01 16:06:40;;;;;;;4.40;1.30;;;;;;;21.58;31.80;99184.53;105847;1277;112898;-66
2022/09/01 16:09:11;;;;;;;5.50;1.40;;;;;;;21.51;31.65;99189.11;105814;1279;96853;-64
2022/09/01 16:11:41;;;;;;;7.80;1.60;;;;;;;21.45;31.68;99185.99;105932;1277;106993;-65
2022/09/01 16:14:10;;;;;;;9.00;1.80;;;;;;;21.39;31.62;99186.69;105947;1276;99320;-65
2022/09/01 16:16:53;;;;;;;8.00;1.90;;;;;;;21.29;31.58;99185.46;105937;1276;97576;-66
2022/09/01 16:19:51;;;;;;;7.00;2.20;;;;;;;21.24;31.76;99186.44;105967;1276;113507;-64
2022/09/01 16:22:27;;;;;;;3.40;1.80;;;;;;;21.19;31.72;99185.05;105906;1276;99215;-65
2022/09/01 16:25:04;;;;;;;4.60;1.50;;;;;;;21.14;31.86;99184.48;105825;1277;107906;-65
2022/09/01 16:27:40;;;;;;;5.60;1.80;;;;;;;21.06;31.80;99185.41;105980;1276;99227;-67
2022/09/01 16:30:15;;;;;;;6.20;1.80;;;;;;;20.99;31.90;99190.76;105964;1276;99403;-69
2022/09/01 16:32:47;;;;;;;8.50;2.10;;;;;;;20.94;32.16;99192.02;106084;1276;112801;-66
2022/09/01 16:35:21;;;;;;;5.70;2.60;;;;;;;20.89;32.01;99192.97;105994;1277;96604;-66
2022/09/01 16:38:34;;;;;;;5.90;1.70;;;;;;;20.80;31.97;99188.54;105976;1277;108320;-68
2022/09/01 16:41:17;;;;;;;4.10;1.70;;;;;;;20.71;32.18;99191.52;105778;1276;99356;-66
2022/09/01 16:43:59;;;;;;;;;;;;;;;20.68;32.10;99194.95;105889;1277;99192;-66
2022/09/01 16:46:36;;;;;;;2.90;1.30;;;;;;;20.58;32.21;99198.55;105851;1277;113221;-64
2022/09/01 16:49:32;;;;;;;8.20;1.60;;;;;;;20.53;32.30;99199.36;105936;1276;99234;-65
2022/09/01 16:52:10;;;;;;;7.60;1.90;;;;;;;20.48;32.16;99202.57;105679;1276;107784;-65
2022/09/01 16:54:56;;;;;;;8.40;1.90;;;;;;;20.45;32.33;99204.57;105983;1276;99231;-67
2022/09/01 16:57:53;;;;;;;7.80;1.90;;;;;;;20.39;32.39;99206.82;106016;1276;99344;-64
2022/09/01 17:00:52;;;;;;;5.40;1.80;;;;;;;20.33;32.42;99206.77;105952;1277;112853;-65
2022/09/01 17:03:33;;;;;;;4.70;2.10;;;;;;;20.25;32.42;99212.92;105880;1276;99215;-62
2022/09/01 17:06:30;;;;;;;10.30;2.20;;;;;;;20.17;32.48;99213.70;105797;1276;107382;-67
2022/09/01 17:09:09;;;;;;;5.30;1.80;;;;;;;20.10;32.57;99218.98;105850;1276;99263;-66
2022/09/01 17:12:02;;;;;;;6.00;2.50;;;;;;;20.02;32.71;99223.13;105892;1276;96696;-65
2022/09/01 17:14:47;;;;;;;6.70;2.20;;;;;;;19.92;32.64;99231.54;105715;1279;112733;-64
2022/09/01 17:17:20;;;;;;;6.70;2.40;;;;;;;19.83;32.69;99233.58;105975;1276;96544;-64
2022/09/01 17:19:53;;;;;;;11.90;2.20;;;;;;;19.74;32.78;99237.29;106007;1275;107772;-66
2022/09/01 17:22:24;;;;;;;9.20;2.00;;;;;;;19.66;32.87;99235.12;105917;1277;99304;-64
2022/09/01 17:25:08;;;;;;;6.60;2.10;;;;;;;19.59;32.94;99241.27;105795;1278;96607;-65
2022/09/01 17:27:57;;;;;;;7.00;2.10;;;;;;;19.49;33.03;99242.66;105882;1279;113562;-67
2022/09/01 17:30:26;;;;;;;6.00;2.10;;;;;;;19.41;33.01;99245.69;105867;1279;99085;-65
2022/09/01 17:33:14;;;;;;;7.60;2.30;;;;;;;19.33;33.15;99250.98;105880;1277;108346;-66
2022/09/01 17:36:13;;;;;;;12.90;2.60;;;;;;;19.24;33.19;99249.66;105876;1276;99251;-65
2022/09/01 17:39:02;;;;;;;8.40;2.80;;;;;;;19.13;33.30;99253.15;106002;1276;99234;-65
2022/09/01 17:41:54;;;;;;;12.00;2.70;;;;;;;19.04;33.37;99255.30;105857;1276;113368;-65
2022/09/01 17:45:01;;;;;;;9.90;2.90;;;;;;;18.97;33.36;99252.67;105857;1276;98469;-64
2022/09/01 17:47:39;;;;;;;13.90;3.00;;;;;;;18.86;33.55;99256.17;105980;1276;108392;-65
2022/09/01 17:50:30;;;;;;;10.60;3.50;;;;;;;18.80;33.79;99260.13;106053;1276;99136;-65
2022/09/01 17:53:10;;;;;;;18.80;3.50;;;;;;;18.72;33.78;99260.63;105852;1277;99215;-66
2022/09/01 17:55:56;;;;;;;10.60;3.20;;;;;;;18.65;33.85;99261.67;105897;1277;112892;-65
2022/09/01 17:58:56;;;;;;;11.60;3.50;;;;;;;18.57;33.67;99264.30;105970;1277;96644;-64
2022/09/01 18:01:32;;;;;;;11.80;3.90;;;;;;;18.48;33.98;99268.81;105914;1277;109643;-65
2022/09/01 18:04:53;;;;;;;12.50;4.20;;;;;;;18.39;34.05;99273.05;105898;1276;97800;-65
2022/09/01 18:07:38;;;;;;;13.40;4.10;;;;;;;18.29;34.02;99276.23;105721;1276;99240;-64
2022/09/01 18:10:13;;;;;;;17.50;4.10;;;;;;;18.20;34.05;99280.19;105911;1276;112618;-65
2022/09/01 18:12:59;;;;;;;12.40;4.20;;;;;;;18.11;34.29;99283.04;105881;1277;99270;-62
2022/09/01 18:15:49;;;;;;;14.20;4.70;;;;;;;18.01;34.41;99286.73;105817;1277;108247;-65
2022/09/01 18:18:33;;;;;;;12.10;3.80;;;;;;;17.90;34.58;99290.33;106003;1276;97546;-64
2022/09/01 18:21:19;;;;;;;11.60;4.90;;;;;;;17.80;34.47;99290.60;106020;1276;99250;-66
2022/09/01 18:24:07;;;;;;;12.00;3.80;;;;;;;17.68;34.66;99287.71;105909;1277;112493;-65
2022/09/01 18:26:40;;;;;;;12.00;3.30;;;;;;;17.55;34.66;99293.02;105860;1279;99247;-64
2022/09/01 18:29:10;;;;;;;16.20;3.80;;;;;;;17.46;34.80;99297.58;105856;1278;108480;-64
2022/09/01 18:32:11;;;;;;;7.70;3.20;;;;;;;17.38;34.84;99299.39;106011;1275;99316;-64
2022/09/01 18:35:00;;;;;;;9.50;3.20;;;;;;;17.28;34.85;99302.83;105983;1277;99192;-64
2022/09/01 18:37:45;;;;;;;12.10;4.10;;;;;;;17.19;35.08;99308.02;105941;1276;113620;-63
2022/09/01 18:40:31;;;;;;;11.30;3.80;;;;;;;17.09;35.33;99309.86;105987;1276;99214;-65
2022/09/01 18:43:25;;;;;;;12.50;3.90;;;;;;;17.02;35.33;99308.79;105822;1277;108618;-66
2022/09/01 18:46:02;;;;;;;11.90;3.80;;;;;;;16.93;35.44;99307.73;105960;1277;97764;-67
2022/09/01 18:49:14;;;;;;;15.80;4.30;;;;;;;16.84;35.53;99308.65;105950;1276;99352;-64
2022/09/01 18:51:58;;;;;;;15.10;4.70;;;;;;;16.73;35.68;99310.58;105432;1276;113378;-65
2022/09/01 18:54:35;;;;;;;19.80;4.90;;;;;;;16.67;35.91;99310.02;105805;1276;97827;-64
2022/09/01 18:57:06;;;;;;;21.60;5.70;;;;;;;16.60;35.79;99310.29;105833;1274;109392;-67
2022/09/01 18:59:54;;;;;;;18.80;5.30;;;;;;;16.55;35.90;99314.94;105920;1276;98296;-64
2022/09/01 19:02:51;;;;;;;13.10;4.50;;;;;;;16.50;36.08;99315.55;105963;1276;99297;-66
2022/09/01 19:05:31;;;;;;;15.70;5.30;;;;;;;16.41;36.14;99316.60;106002;1276;115534;-65
2022/09/01 19:08:23;;;;;;;18.70;5.60;;;;;;;16.34;36.17;99319.34;105591;1277;100110;-65
2022/09/01 19:11:20;;;;;;;13.50;5.00;;;;;;;16.28;36.46;99320.31;105777;1276;108402;-65
2022/09/01 19:14:03;;;;;;;16.20;5.70;;;;;;;16.21;36.44;99322.33;106004;1276;99227;-66
2022/09/01 19:16:57;;;;;;;18.80;5.90;;;;;;;16.16;36.56;99325.69;105914;1276;96720;-64
2022/09/01 19:19:42;;;;;;;20.10;6.50;;;;;;;16.09;36.65;99333.25;105902;1276;113460;-65
2022/09/01 19:22:30;;;;;;;19.20;6.40;;;;;;;16.02;36.75;99332.48;105873;1277;97776;-65
2022/09/01 19:28:03;;;;;;;18.30;5.80;;;;;;;15.92;37.02;99338.77;105877;1278;99235;-66
2022/09/01 19:30:40;;;;;;;21.50;6.10;;;;;;;15.86;37.05;99340.73;105820;1276;99220;-65
2022/09/01 19:33:13;;;;;;;16.30;5.60;;;;;;;15.79;37.19;99343.11;105877;1276;112377;-64
2022/09/01 19:35:48;;;;;;;16.60;5.40;;;;;;;15.72;37.31;99343.03;105785;1278;97780;-65
2022/09/01 19:38:26;;;;;;;14.90;5.00;;;;;;;15.67;37.37;99348.67;105808;1276;107821;-65
2022/09/01 19:41:12;;;;;;;15.90;4.90;;;;;;;15.60;37.46;99350.52;105754;1276;96640;-65
2022/09/01 19:43:41;;;;;;;15.80;4.70;;;;;;;15.53;37.54;99350.92;105865;1276;97669;-65
2022/09/01 19:46:29;;;;;;;18.40;6.50;;;;;;;15.47;37.64;99351.13;105795;1276;113818;-65
2022/09/01 19:49:17;;;;;;;19.60;7.60;;;;;;;15.41;37.80;99354.52;105751;1276;99342;-65
2022/09/01 19:51:57;;;;;;;16.80;5.00;;;;;;;15.38;37.94;99354.78;105814;1276;108387;-67
2022/09/01 19:54:55;;;;;;;16.60;5.40;;;;;;;15.34;37.98;99355.31;105819;1276;99924;-65
2022/09/01 19:57:37;;;;;;;15.20;5.10;;;;;;;15.28;38.08;99357.38;105866;1276;99126;-66
2022/09/01 20:00:23;;;;;;;17.50;5.10;;;;;;;15.24;38.15;99355.79;105669;1277;113412;-67
2022/09/01 20:03:06;;;;;;;14.30;4.50;;;;;;;15.19;38.32;99358.02;105484;1279;99214;-66
2022/09/01 20:05:39;;;;;;;16.20;4.20;;;;;;;15.15;38.40;99358.88;106035;1277;107856;-66
2022/09/01 20:08:37;;;;;;;14.30;5.00;;;;;;;15.09;38.51;99360.30;105840;1276;99250;-65
2022/09/01 20:11:31;;;;;;;12.80;3.70;;;;;;;15.04;38.58;99363.29;105813;1276;99276;-69
2022/09/01 20:14:38;;;;;;;11.80;3.80;;;;;;;14.96;38.70;99361.41;105568;1279;113570;-66
2022/09/01 20:17:18;;;;;;;14.60;4.80;;;;;;;14.89;38.82;99362.02;105900;1276;99321;-67
2022/09/01 20:19:55;;;;;;;13.70;4.30;;;;;;;14.81;38.87;99361.61;105653;1279;108386;-65
2022/09/01 20:22:56;;;;;;;11.50;4.90;;;;;;;14.72;39.00;99363.83;105757;1278;99229;-66
2022/09/01 20:25:32;;;;;;;24.30;10.40;;;;;;;14.64;39.13;99367.34;105845;1277;99128;-65
2022/09/01 20:28:19;;;;;;;15.40;5.30;;;;;;;14.61;39.17;99369.37;105856;1276;111850;-65
2022/09/01 20:30:59;;;;;;;12.80;4.30;;;;;;;14.58;39.40;99370.16;105863;1276;99734;-65
2022/09/01 20:33:33;;;;;;;16.60;4.20;;;;;;;14.54;39.38;99366.58;105828;1276;107783;-65
2022/09/01 20:36:27;;;;;;;15.70;4.30;;;;;;;14.46;39.45;99370.27;105749;1277;99314;-65
2022/09/01 20:42:12;;;;;;;12.70;4.30;;;;;;;14.31;39.84;99371.14;105883;1276;113733;-65
2022/09/01 20:44:53;;;;;;;13.40;4.20;;;;;;;14.29;39.77;99372.53;105799;1277;97797;-64
2022/09/01 20:47:28;;;;;;;15.40;4.00;;;;;;;14.21;39.87;99375.00;105866;1276;107395;-64
2022/09/01 20:50:00;;;;;;;15.80;4.00;;;;;;;14.13;40.01;99374.58;105687;1277;98358;-64
2022/09/01 20:53:00;;;;;;;12.20;3.90;;;;;;;14.08;40.09;99375.87;105663;1278;96735;-65
2022/09/01 20:55:27;;;;;;;9.40;4.00;;;;;;;14.03;40.22;99378.98;105873;1276;113097;-66
2022/09/01 20:58:14;;;;;;;12.00;4.00;;;;;;;13.95;40.27;99376.45;105902;1276;99403;-65
2022/09/01 21:01:14;;;;;;;13.00;4.30;;;;;;;13.89;40.41;99378.70;105913;1275;107657;-65
2022/09/01 21:04:05;;;;;;;14.70;4.70;;;;;;;13.76;40.55;99378.29;105779;1276;99271;-67
2022/09/01 21:07:01;;;;;;;13.10;3.80;;;;;;;13.70;40.68;99378.96;105842;1278;99248;-65
2022/09/01 21:09:56;;;;;;;13.20;4.00;;;;;;;13.64;40.80;99374.83;105859;1277;113400;-62
2022/09/01 21:12:43;;;;;;;12.80;3.80;;;;;;;13.60;40.81;99377.42;105825;1276;99263;-67
2022/09/01 21:15:26;;;;;;;10.80;3.80;;;;;;;13.55;40.91;99385.30;105803;1276;108712;-65
2022/09/01 21:18:32;;;;;;;11.40;3.80;;;;;;;13.46;41.02;99386.52;105880;1276;97080;-64
2022/09/01 21:21:16;;;;;;;13.40;4.10;;;;;;;13.37;41.16;99390.06;105797;1278;97668;-64
2022/09/01 21:23:44;;;;;;;9.40;3.70;;;;;;;13.29;41.18;99391.80;105884;1276;113443;-63
2022/09/01 21:26:16;;;;;;;13.40;3.90;;;;;;;13.22;41.31;99393.93;105929;1276;99050;-61
2022/09/01 21:28:50;;;;;;;11.90;4.00;;;;;;;13.19;41.38;99393.27;105888;1276;108375;-63
2022/09/01 21:31:18;;;;;;;12.60;4.30;;;;;;;13.13;41.35;99391.60;105888;1276;99202;-64
2022/09/01 21:33:47;;;;;;;10.30;3.70;;;;;;;13.06;41.47;99398.53;105852;1276;99282;-64
2022/09/01 21:36:18;;;;;;;10.70;3.90;;;;;;;13.02;41.67;99397.77;105969;1276;113558;-64
2022/09/01 21:38:46;;;;;;;13.60;3.70;;;;;;;13.00;41.88;99399.73;105839;1276;98966;-63
2022/09/01 21:41:15;;;;;;;12.90;4.10;;;;;;;12.96;41.88;99397.23;105823;1276;108304;-64
2022/09/01 21:43:46;;;;;;;13.00;4.00;;;;;;;12.91;41.98;99399.90;105732;1277;99827;-64
2022/09/01 21:46:15;;;;;;;11.30;3.80;;;;;;;12.86;42.01;99397.56;105900;1276;99229;-64
2022/09/01 21:48:50;;;;;;;7.60;3.40;;;;;;;12.82;42.01;99398.41;105744;1276;113577;-63
2022/09/01 21:51:17;;;;;;;14.10;4.30;;;;;;;12.76;42.09;99395.33;105721;1279;99274;-63
2022/09/01 21:53:45;;;;;;;8.00;3.60;;;;;;;12.72;42.31;99397.02;105903;1276;108218;-65
2022/09/01 21:56:18;;;;;;;8.80;3.40;;;;;;;12.68;42.34;99394.87;105879;1277;96610;-65
2022/09/01 21:58:57;;;;;;;22.30;10.90;;;;;;;12.62;42.54;99396.00;105829;1276;97646;-64
2022/09/01 22:01:32;;;;;;;21.20;7.80;;;;;;;12.56;42.58;99401.13;105879;1276;112199;-64
2022/09/01 22:04:03;;;;;;;7.70;3.40;;;;;;;12.50;42.65;99402.82;105836;1276;99207;-64
2022/09/01 22:06:34;;;;;;;10.50;3.70;;;;;;;12.42;42.77;99403.72;105890;1276;107801;-64
2022/09/01 22:09:06;;;;;;;9.00;3.60;;;;;;;12.40;42.83;99407.14;105669;1279;99310;-64
2022/09/01 22:11:51;;;;;;;7.50;3.10;;;;;;;12.37;42.99;99402.00;105961;1275;99245;-64
2022/09/01 22:14:22;;;;;;;6.80;3.20;;;;;;;12.35;43.16;99400.86;105948;1276;112887;-64